Mellieha, Malta
Current Conditions -  °F | °C
As of 2:45 AM on Tuesday 23 Dec 2014 (Local Time) from LMML Reporting Station
Broken Clouds Broken Clouds  
Wind Chill: 57°   Ceiling: 2400
Heat Index: 57°   Visibility: 6mi
Dew Point: 54°   Wind: 6mph
Humidity: 88%   Direction: 250°WSW
Pressure: 30.42"   Gusts: NA
Location:  35.96°N, 14.36°E
Report Text: LMML 230045Z AUTO 25005KT 9999NDV SCT020/// BKN024/// BKN030///14/12 Q1030
Loading
Personal Weather Stations






























Interactive Weather Map New forecast layout! Learn more

10-Day Weather Forecast

Advertisements
Track Severe Weather on mobile